weather station
Area: 11014 km2
The highest point: Tok (865 m.s.l.)
Total stations: 60
Stations online: 57
Stations offline: 3
Current weather
11°C

Meteorological map - weather stations in Středočeský

. The meteorological maps show weather information from WARIO weather stations

Weather stations Středočeský

 UpdatesNameStatusTemperatureHumidityWind speedWind direction
1.10.2022 14:33Barochov11.9 °C65.6 %2.0 m/s SW
1.10.2022 14:33Beroun10.5 °C75.4 %3.0 m/s W
1.10.2022 14:33Beroun11.1 °C75.6 %5.3 m/s SW
1.10.2022 14:33Bořanovice10.6 °C83.4 %2.3 m/s S
1.10.2022 14:33Jílové u Prahy - Borek12.0 °C75.3 %1.4 m/s NW
1.10.2022 14:33Břešťany10.5 °C79.8 %2.0 m/s S
1.10.2022 14:33Brandýs nad Labem12.5 °C76.8 %0.9 m/s N
2.9.2022 10:55Rakovník17.6 °C52.8 %0.0 m/s E
1.10.2022 14:33Králův Dvůr10.7 °C80.2 %4.8 m/s SW
1.10.2022 14:33Chotětov11.2 °C77.7 %3.2 m/s SE
1.10.2022 14:33Přítoky13.1 °C48.3 %4.2 m/s E
1.10.2022 14:33Dobřejovice11.2 °C66.5 %2.1 m/s SW
1.10.2022 14:33Dolní Břežany10.9 °C67.7 %3.3 m/s E
1.10.2022 14:33Dolní Břežany11.5 °C67.0 %2.0 m/s SW
13.9.2022 17:42Holubice20.6 °C64.8 %2.1 m/s NE
1.10.2022 14:33Hostín u Vojkovic10.9 °C91.6 %1.4 m/s W
1.10.2022 14:33Hovorčovice10.8 °C100.0 %1.2 m/s S
1.10.2022 14:33Sedlčany11.9 °C82.8 %0.0 m/s SW
1.10.2022 14:33Žebrák9.8 °C79.4 %3.6 m/s SW
1.10.2022 14:33Jiřetice12.2 °C66.6 %0.8 m/s SE
1.10.2022 14:33Kojetice11.3 °C100.0 %3.0 m/s SW
1.10.2022 14:33Kostelec nad Černými lesy11.1 °C73.8 %1.6 m/s SE
1.10.2022 14:33Kostelec nad Černými lesy11.0 °C70.3 %1.1 m/s N
1.10.2022 14:34Krásná Hora nad Vltavou11.1 °C82.2 %2.1 m/s S
1.10.2022 14:34Květnice12.0 °C77.0 %3.1 m/s N
1.10.2022 14:33Krušovice9.1 °C89.3 %3.9 m/s SW
1.10.2022 14:33Zdice11.1 °C82.2 %2.2 m/s S
1.10.2022 14:33Zeleneč11.3 °C82.8 %2.9 m/s W
23.9.2022 08:52Vestec5.5 °C80.9 %0.0 m/s W
1.10.2022 14:33Jince9.8 °C74.8 %2.0 m/s W
1.10.2022 14:33Dolní Jirčany10.5 °C75.0 %2.3 m/s E
1.10.2022 14:33Cetyně9.5 °C73.1 %3.4 m/s SE
1.10.2022 14:33Vysoký Újezd9.4 °C72.0 %3.6 m/s SW
1.10.2022 14:33Olešná8.5 °C100.0 %0.0 m/s S
1.10.2022 14:33Srby9.5 °C82.4 %3.1 m/s SW
1.10.2022 14:33Kralupy nad Vltavou11.5 °C76.7 %1.5 m/s SW
1.10.2022 14:33Mrač12.2 °C58.0 %1.9 m/s W
1.10.2022 14:33Mladá Boleslav11.0 °C86.7 %0.0 m/s NE
1.10.2022 14:33Obříství10.8 °C80.9 %1.5 m/s W
1.10.2022 14:33Milín9.2 °C74.2 %2.1 m/s W
1.10.2022 14:33Mnichovice11.0 °C68.8 %2.4 m/s W
1.10.2022 14:33Mnichovice11.9 °C60.5 %1.8 m/s NE
1.10.2022 14:33Hořovice9.5 °C86.4 %6.8 m/s W
1.10.2022 14:33Ostrá12.7 °C73.3 %1.9 m/s N
1.10.2022 14:33Petrovice11.4 °C77.0 %2.2 m/s SW
1.10.2022 14:34Suchodol10.2 °C90.4 %3.6 m/s E
1.10.2022 14:33Říčany11.2 °C71.0 %0.9 m/s SE
1.10.2022 14:33Slaný9.6 °C100.0 %1.6 m/s E
1.10.2022 14:33Višňová9.8 °C75.1 %2.7 m/s N
1.10.2022 14:34Toušice13.1 °C62.4 %0.0 m/s NW
1.10.2022 14:33Třebsko9.0 °C93.0 %2.1 m/s W
1.10.2022 14:33Unhošť9.5 °C76.1 %2.0 m/s NE
1.10.2022 14:33Vrbčany11.5 °C87.2 %1.1 m/s W
1.10.2022 14:33Všešímy11.2 °C70.2 %1.6 m/s S
1.10.2022 14:33Všetaty11.4 °C77.4 %3.0 m/s S
1.10.2022 14:33Zaječice11.5 °C61.3 %1.7 m/s S
1.10.2022 14:33Zápy12.0 °C70.3 %1.6 m/s SW
1.10.2022 14:33Zdice10.6 °C83.7 %3.8 m/s SW
1.10.2022 14:33Zibohlavy13.6 °C54.8 %0.0 m/s SW
1.10.2022 14:33Divišov10.9 °C79.1 %2.3 m/s SW
Email notifications
Enter your email address to subscribe to notifications about news at warioweather.com. Your email address will not be used for any purpose other than sending these emails and will not be provided to any third party. The subscription can be ended at any time.
All data are only indicative. The portal administrator has no responsibility for potentially incorrect data and related consequences. Publishing or further sharing of content from www.warioweather.com is only allowed with written consent from WANET s.r.o.